Time;durP1;ratioP1;P1;durP2;ratioP2;P2;SDS_P1;SDS_P2;PMS_P1;PMS_P2;Temp;Humidity;BMP_temperature;BMP_pressure;BME280_temperature;BME280_humidity;BME280_pressure;Samples;Min_cycle;Max_cycle;Signal;HPM_P1;HPM_P2
2023/03/30 00:00:37;;;;;;;0.75;0.63;;;10.30;99.90;;;;;;5019231;28;20053;-76
2023/03/30 00:03:02;;;;;;;0.55;0.45;;;10.20;99.90;;;;;;5010622;28;20034;-76
2023/03/30 00:05:28;;;;;;;1.98;0.63;;;10.30;99.90;;;;;;5013709;28;20033;-77
2023/03/30 00:07:54;;;;;;;0.77;0.47;;;10.30;99.90;;;;;;5009721;28;20072;-77
2023/03/30 00:10:20;;;;;;;1.83;0.43;;;10.30;99.90;;;;;;5033469;28;20029;-77
2023/03/30 00:12:49;;;;;;;1.50;0.75;;;10.30;99.90;;;;;;5019327;28;20406;-76
2023/03/30 00:15:17;;;;;;;0.80;0.60;;;10.40;99.90;;;;;;5013885;28;20044;-77
2023/03/30 00:17:43;;;;;;;0.30;0.30;;;10.40;99.70;;;;;;5007722;28;20033;-76
2023/03/30 00:20:10;;;;;;;0.60;0.40;;;10.40;99.60;;;;;;5033325;28;20087;-76
2023/03/30 00:22:40;;;;;;;0.50;0.50;;;10.40;99.40;;;;;;5026053;28;20586;-76
2023/03/30 00:25:09;;;;;;;1.02;0.50;;;10.40;99.20;;;;;;5014632;28;20029;-77
2023/03/30 00:27:36;;;;;;;1.13;0.47;;;10.40;99.20;;;;;;5004907;28;20113;-77
2023/03/30 00:30:03;;;;;;;0.73;0.50;;;10.40;99.10;;;;;;5020995;28;20101;-77
2023/03/30 00:32:29;;;;;;;0.90;0.63;;;10.40;98.90;;;;;;5021700;28;20440;-77
2023/03/30 00:34:55;;;;;;;0.50;0.50;;;10.40;98.80;;;;;;5032601;28;20030;-76
2023/03/30 00:37:22;;;;;;;0.73;0.32;;;10.40;98.70;;;;;;5027250;28;20088;-77
2023/03/30 00:39:48;;;;;;;0.80;0.47;;;10.40;98.60;;;;;;5015410;28;20026;-76
2023/03/30 00:42:17;;;;;;;0.50;0.38;;;10.40;98.50;;;;;;5003040;28;20045;-76
2023/03/30 00:45:19;;;;;;;1.58;0.50;;;10.40;98.40;;;;;;5035910;28;20053;-76
2023/03/30 00:47:57;;;;;;;1.08;0.50;;;10.40;98.30;;;;;;5034660;28;20022;-78
2023/03/30 00:50:28;;;;;;;1.63;0.65;;;10.40;98.30;;;;;;5028570;28;20472;-77
2023/03/30 00:52:57;;;;;;;1.90;0.88;;;10.40;98.20;;;;;;5032311;28;20021;-76
2023/03/30 00:55:24;;;;;;;1.83;0.80;;;10.40;98.10;;;;;;5012880;28;20305;-77
2023/03/30 00:57:51;;;;;;;0.70;0.50;;;10.40;97.90;;;;;;5015169;28;20030;-77
2023/03/30 01:00:17;;;;;;;2.45;0.88;;;10.40;97.80;;;;;;5033409;28;20037;-77
2023/03/30 01:02:57;;;;;;;3.22;0.70;;;10.40;97.80;;;;;;5026717;28;20105;-77
2023/03/30 01:05:23;;;;;;;3.13;0.75;;;10.40;97.80;;;;;;5032379;28;20033;-77
2023/03/30 01:07:50;;;;;;;1.30;0.50;;;10.40;97.70;;;;;;5037629;28;20030;-76
2023/03/30 01:10:16;;;;;;;1.20;0.40;;;10.40;97.60;;;;;;5036513;28;20041;-76
2023/03/30 01:12:43;;;;;;;0.95;0.43;;;10.40;97.70;;;;;;5012260;28;20049;-76
2023/03/30 01:15:09;;;;;;;1.77;0.90;;;10.40;97.60;;;;;;5017017;28;20072;-77
2023/03/30 01:17:48;;;;;;;4.90;0.70;;;10.40;97.60;;;;;;5026117;28;20037;-77
2023/03/30 01:21:01;;;;;;;1.15;0.50;;;10.30;97.50;;;;;;5036988;28;20545;-77
2023/03/30 01:24:14;;;;;;;1.17;0.55;;;10.40;97.50;;;;;;5027805;28;20025;-76
2023/03/30 01:26:52;;;;;;;1.08;0.60;;;10.40;97.40;;;;;;4977901;28;20125;-77
2023/03/30 01:29:28;;;;;;;1.45;0.70;;;10.40;97.30;;;;;;4978289;28;20030;-77
2023/03/30 01:32:12;;;;;;;1.50;0.60;;;10.40;97.20;;;;;;5015816;28;20059;-77
2023/03/30 01:35:00;;;;;;;2.25;0.55;;;10.40;97.20;;;;;;5016347;28;20032;-77
2023/03/30 01:37:51;;;;;;;1.15;0.30;;;10.50;97.10;;;;;;5022623;28;20032;-76
2023/03/30 01:40:40;;;;;;;0.98;0.40;;;10.50;97.00;;;;;;5017639;28;20050;-76
2023/03/30 01:43:24;;;;;;;0.75;0.52;;;10.50;96.90;;;;;;5007579;28;20146;-76
2023/03/30 01:46:00;;;;;;;1.58;0.50;;;10.50;96.80;;;;;;5003896;28;20112;-76
2023/03/30 01:48:57;;;;;;;2.13;0.50;;;10.60;96.70;;;;;;5031103;28;20382;-77
2023/03/30 01:51:28;;;;;;;1.48;0.50;;;10.60;96.50;;;;;;5012642;28;20401;-76
2023/03/30 01:54:10;;;;;;;0.38;0.30;;;10.60;96.50;;;;;;5023456;28;20032;-77
2023/03/30 01:57:08;;;;;;;1.00;0.35;;;10.60;96.50;;;;;;5005717;28;20048;-77
2023/03/30 01:59:55;;;;;;;0.77;0.35;;;10.60;96.50;;;;;;5012929;28;20061;-77
2023/03/30 02:02:24;;;;;;;0.65;0.30;;;10.70;96.40;;;;;;5025048;28;20030;-76
2023/03/30 02:04:53;;;;;;;0.28;0.28;;;10.70;96.30;;;;;;5035110;28;20544;-78
2023/03/30 02:07:22;;;;;;;0.28;0.28;;;10.70;96.30;;;;;;5014637;28;20106;-76
2023/03/30 02:09:51;;;;;;;0.20;0.20;;;10.70;96.10;;;;;;5016155;28;20095;-76
2023/03/30 02:12:18;;;;;;;1.20;0.38;;;10.70;96.10;;;;;;5016211;28;20098;-76
2023/03/30 02:14:46;;;;;;;1.55;0.40;;;10.70;96.40;;;;;;5016792;28;20121;-76
2023/03/30 02:17:20;;;;;;;0.22;0.22;;;10.80;96.00;;;;;;5018583;28;20037;-75
2023/03/30 02:19:46;;;;;;;1.67;0.20;;;10.80;95.90;;;;;;5035719;28;20030;-77
2023/03/30 02:22:14;;;;;;;0.82;0.40;;;10.90;95.90;;;;;;5032818;28;20025;-76
2023/03/30 02:24:40;;;;;;;2.47;0.73;;;10.90;95.70;;;;;;5015353;28;20368;-77
2023/03/30 02:27:06;;;;;;;2.97;0.57;;;11.00;95.60;;;;;;5021788;28;20080;-77
2023/03/30 02:29:36;;;;;;;1.65;1.02;;;11.10;95.40;;;;;;5017532;28;20022;-76
2023/03/30 02:32:02;;;;;;;1.63;0.57;;;11.10;95.30;;;;;;5000485;28;20463;-77
2023/03/30 02:34:38;;;;;;;1.27;0.50;;;11.10;95.20;;;;;;5015009;28;20033;-77
2023/03/30 02:37:10;;;;;;;0.90;0.55;;;11.20;95.10;;;;;;4998656;28;20034;-78
2023/03/30 02:40:12;;;;;;;2.83;0.75;;;11.20;95.00;;;;;;5034372;28;20083;-77
2023/03/30 02:42:51;;;;;;;1.70;0.90;;;11.30;95.00;;;;;;5028562;28;20117;-77
2023/03/30 02:45:31;;;;;;;1.98;0.55;;;11.30;94.90;;;;;;5015460;28;20022;-77
2023/03/30 02:48:25;;;;;;;1.63;0.52;;;11.30;94.80;;;;;;5023847;28;20030;-75
2023/03/30 02:51:16;;;;;;;2.42;0.63;;;11.40;94.70;;;;;;5047223;28;20041;-76
2023/03/30 02:54:00;;;;;;;1.87;1.10;;;11.50;94.70;;;;;;5018517;28;20079;-76
2023/03/30 02:57:10;;;;;;;2.80;1.08;;;11.60;94.70;;;;;;5037569;28;20055;-77
2023/03/30 03:00:00;;;;;;;4.38;0.90;;;11.70;94.70;;;;;;5004314;28;20072;-77
2023/03/30 03:02:32;;;;;;;10.98;2.33;;;11.90;94.80;;;;;;5024008;28;20040;-76
2023/03/30 03:05:02;;;;;;;7.78;1.98;;;12.00;94.90;;;;;;5045825;28;20081;-76
2023/03/30 03:07:32;;;;;;;6.20;2.10;;;12.10;94.90;;;;;;5033475;28;20053;-77
2023/03/30 03:09:58;;;;;;;9.30;1.60;;;12.10;95.10;;;;;;5034903;28;20033;-77
2023/03/30 03:12:25;;;;;;;4.03;1.25;;;12.10;95.10;;;;;;5034244;28;20014;-76
2023/03/30 03:14:52;;;;;;;6.25;1.77;;;12.10;95.30;;;;;;5034416;28;20030;-77
2023/03/30 03:17:21;;;;;;;4.78;1.63;;;12.20;95.50;;;;;;5032518;28;20017;-76
2023/03/30 03:19:47;;;;;;;2.80;1.00;;;12.20;95.50;;;;;;5018546;28;20029;-76
2023/03/30 03:22:13;;;;;;;2.45;1.20;;;12.10;95.70;;;;;;5032142;28;20580;-77
2023/03/30 03:24:39;;;;;;;1.60;0.70;;;12.10;95.80;;;;;;5015362;28;20034;-77
2023/03/30 03:27:05;;;;;;;2.15;1.20;;;12.00;96.00;;;;;;5014746;28;20072;-76
2023/03/30 03:29:31;;;;;;;1.88;0.95;;;12.00;96.30;;;;;;5016051;28;20018;-77
2023/03/30 03:31:57;;;;;;;3.05;0.98;;;12.00;96.60;;;;;;5022639;28;20544;-77
2023/03/30 03:34:25;;;;;;;2.72;0.90;;;11.90;96.90;;;;;;4999273;28;20030;-77
2023/03/30 03:36:53;;;;;;;2.55;0.70;;;11.90;97.30;;;;;;5034046;28;20445;-77
2023/03/30 03:39:19;;;;;;;1.45;0.82;;;11.90;97.70;;;;;;5037283;28;20028;-76
2023/03/30 03:41:45;;;;;;;2.05;0.80;;;11.90;97.90;;;;;;5036441;28;20021;-77
2023/03/30 03:44:10;;;;;;;2.75;0.57;;;11.90;98.20;;;;;;5036083;28;20029;-76
2023/03/30 03:46:36;;;;;;;1.75;0.60;;;11.80;98.40;;;;;;5043457;28;20032;-76
2023/03/30 03:49:02;;;;;;;1.58;0.57;;;11.80;98.60;;;;;;5043090;28;20026;-76
2023/03/30 03:51:28;;;;;;;1.50;0.40;;;11.70;99.00;;;;;;5028155;28;20034;-76
2023/03/30 03:53:54;;;;;;;1.20;0.60;;;11.70;99.30;;;;;;5028859;28;20040;-77
2023/03/30 03:56:20;;;;;;;0.60;0.30;;;11.70;99.70;;;;;;5015048;28;20024;-77
2023/03/30 03:58:45;;;;;;;0.57;0.40;;;11.70;99.90;;;;;;5046297;28;20049;-76
2023/03/30 04:01:13;;;;;;;0.57;0.38;;;11.60;99.90;;;;;;5043310;28;20347;-76
2023/03/30 04:03:40;;;;;;;1.75;0.20;;;11.50;99.90;;;;;;5027073;28;20021;-76
2023/03/30 04:06:06;;;;;;;1.17;0.32;;;11.50;99.90;;;;;;5017363;28;20082;-76
2023/03/30 04:08:32;;;;;;;0.15;0.15;;;11.40;99.90;;;;;;5018737;28;20038;-76
2023/03/30 04:11:06;;;;;;;0.85;0.38;;;11.40;99.90;;;;;;5019643;28;20030;-76
2023/03/30 04:13:33;;;;;;;0.70;0.30;;;11.30;99.90;;;;;;5048828;28;20006;-76
2023/03/30 04:15:59;;;;;;;0.77;0.60;;;11.30;99.90;;;;;;5014037;28;20022;-76
2023/03/30 04:18:30;;;;;;;0.98;0.50;;;11.30;99.90;;;;;;4996736;28;20064;-76
2023/03/30 04:21:01;;;;;;;1.60;0.60;;;11.20;99.90;;;;;;5013374;28;20038;-76
2023/03/30 04:23:30;;;;;;;1.40;0.50;;;11.10;99.90;;;;;;5017410;28;20040;-77
2023/03/30 04:26:06;;;;;;;1.05;0.60;;;11.10;99.90;;;;;;5012229;28;20483;-77
2023/03/30 04:28:33;;;;;;;0.60;0.45;;;11.10;99.90;;;;;;5017802;28;20025;-76
2023/03/30 04:31:04;;;;;;;0.77;0.47;;;11.10;99.90;;;;;;5032027;28;20387;-77
2023/03/30 04:33:33;;;;;;;1.85;0.68;;;11.00;99.90;;;;;;5030949;28;20058;-77
2023/03/30 04:36:00;;;;;;;0.85;0.60;;;11.00;99.90;;;;;;5023232;28;20026;-77
2023/03/30 04:38:26;;;;;;;0.80;0.75;;;11.00;99.90;;;;;;5021303;28;20112;-77
2023/03/30 04:40:53;;;;;;;0.30;0.30;;;11.00;99.90;;;;;;5032676;28;20487;-76
2023/03/30 04:43:21;;;;;;;0.22;0.20;;;11.00;99.90;;;;;;5034760;28;20459;-78
2023/03/30 04:45:52;;;;;;;0.88;0.40;;;11.00;99.90;;;;;;5023324;28;20045;-76
2023/03/30 04:48:18;;;;;;;4.65;1.05;;;11.10;99.90;;;;;;5017936;28;20037;-76
2023/03/30 04:50:46;;;;;;;4.88;1.65;;;11.00;99.90;;;;;;5035693;28;20433;-77
2023/03/30 04:53:13;;;;;;;3.80;1.48;;;11.10;99.90;;;;;;5017083;28;20479;-76
2023/03/30 04:55:40;;;;;;;4.03;1.60;;;11.10;99.90;;;;;;5019520;28;20045;-76
2023/03/30 04:58:06;;;;;;;2.75;1.25;;;11.10;99.90;;;;;;5017429;28;20087;-77
2023/03/30 05:00:32;;;;;;;2.78;1.70;;;11.00;99.90;;;;;;5016734;28;20080;-77
2023/03/30 05:02:58;;;;;;;2.08;1.25;;;11.00;99.90;;;;;;5017589;28;20026;-76
2023/03/30 05:05:24;;;;;;;1.35;0.80;;;11.00;99.90;;;;;;5025207;28;20096;-76
2023/03/30 05:07:50;;;;;;;1.05;0.82;;;11.00;99.90;;;;;;5021390;28;20057;-76
2023/03/30 05:10:16;;;;;;;2.55;1.25;;;11.00;99.90;;;;;;5036432;28;20029;-77
2023/03/30 05:12:42;;;;;;;4.15;1.15;;;11.00;99.90;;;;;;5021784;28;20055;-76
2023/03/30 05:15:08;;;;;;;3.03;1.13;;;11.00;99.90;;;;;;5033557;28;20616;-76
2023/03/30 05:17:34;;;;;;;2.88;1.20;;;11.00;99.90;;;;;;5037372;28;20056;-76
2023/03/30 05:20:00;;;;;;;2.00;0.80;;;11.00;99.90;;;;;;5020153;28;20072;-77
2023/03/30 05:22:25;;;;;;;1.13;0.60;;;11.00;99.90;;;;;;5017089;28;20038;-76
2023/03/30 05:24:51;;;;;;;1.35;0.80;;;11.00;99.90;;;;;;5019336;28;20033;-77
2023/03/30 05:27:17;;;;;;;3.38;1.08;;;11.00;99.90;;;;;;5021439;28;20029;-77
2023/03/30 05:29:43;;;;;;;1.10;0.68;;;10.90;99.90;;;;;;5027026;28;20038;-77
2023/03/30 05:32:09;;;;;;;0.85;0.70;;;11.00;99.90;;;;;;5016505;28;20025;-77
2023/03/30 05:34:34;;;;;;;1.95;0.70;;;11.00;99.90;;;;;;5020285;28;20029;-77
2023/03/30 05:37:00;;;;;;;2.97;0.90;;;11.00;99.90;;;;;;5022959;28;20029;-76
2023/03/30 05:39:26;;;;;;;2.83;0.93;;;11.00;99.90;;;;;;5024704;28;20133;-75
2023/03/30 05:41:52;;;;;;;1.63;0.98;;;11.00;99.90;;;;;;5020152;28;20495;-77
2023/03/30 05:44:18;;;;;;;1.65;1.05;;;10.90;99.90;;;;;;5026027;28;20033;-75
2023/03/30 05:46:44;;;;;;;2.47;0.98;;;10.90;99.90;;;;;;5020274;28;20082;-77
2023/03/30 05:49:10;;;;;;;2.80;0.73;;;10.90;99.90;;;;;;5016711;28;20022;-77
2023/03/30 05:51:35;;;;;;;4.88;1.83;;;10.90;99.90;;;;;;5016832;28;20360;-77
2023/03/30 05:54:02;;;;;;;4.13;1.30;;;10.90;99.90;;;;;;5022790;28;20045;-77
2023/03/30 05:56:28;;;;;;;4.72;1.42;;;10.90;99.90;;;;;;5027528;28;20022;-77
2023/03/30 05:58:54;;;;;;;5.10;1.48;;;10.90;99.90;;;;;;5045280;28;20022;-77
2023/03/30 06:01:20;;;;;;;2.80;0.95;;;10.90;99.90;;;;;;5031706;28;20021;-77
2023/03/30 06:03:46;;;;;;;2.35;0.90;;;11.00;99.90;;;;;;5032939;28;20398;-77
2023/03/30 06:06:12;;;;;;;1.70;1.25;;;11.00;99.90;;;;;;5016105;28;20391;-77
2023/03/30 06:08:38;;;;;;;2.22;1.30;;;11.00;99.90;;;;;;5016934;28;20430;-76
2023/03/30 06:11:04;;;;;;;3.00;1.17;;;11.10;99.90;;;;;;5002460;28;20037;-77
2023/03/30 06:13:30;;;;;;;5.47;1.60;;;11.10;99.90;;;;;;5020266;28;20509;-77
2023/03/30 06:15:56;;;;;;;5.00;1.85;;;11.10;99.90;;;;;;5026701;28;20041;-77
2023/03/30 06:18:22;;;;;;;5.05;1.40;;;11.10;99.90;;;;;;5017088;28;20030;-76
2023/03/30 06:20:48;;;;;;;2.47;1.45;;;11.20;99.90;;;;;;5017626;28;20056;-76
2023/03/30 06:23:14;;;;;;;3.08;1.48;;;11.30;99.90;;;;;;5019425;28;20423;-77
2023/03/30 06:25:44;;;;;;;2.53;1.33;;;11.40;99.90;;;;;;4999944;28;20018;-76
2023/03/30 06:28:10;;;;;;;4.70;1.33;;;11.50;99.90;;;;;;5001121;28;20108;-76
2023/03/30 06:30:37;;;;;;;4.53;1.42;;;11.50;99.90;;;;;;5023849;28;20053;-76
2023/03/30 06:33:02;;;;;;;1.55;0.90;;;11.60;99.90;;;;;;5018767;28;20029;-77
2023/03/30 06:35:28;;;;;;;3.22;1.25;;;11.70;99.90;;;;;;5030088;28;20652;-76
2023/03/30 06:37:54;;;;;;;3.92;1.30;;;11.70;99.90;;;;;;5019304;28;20026;-78
2023/03/30 06:40:20;;;;;;;5.28;1.27;;;11.70;99.90;;;;;;5026462;28;20095;-76
2023/03/30 06:42:46;;;;;;;5.57;1.63;;;11.70;99.90;;;;;;5018508;28;20029;-75
2023/03/30 06:45:13;;;;;;;4.03;1.10;;;11.70;99.90;;;;;;5015513;28;20065;-77
2023/03/30 06:47:40;;;;;;;2.35;1.08;;;11.70;99.90;;;;;;5033935;28;20028;-77
2023/03/30 06:50:06;;;;;;;2.72;1.02;;;11.70;99.90;;;;;;5029237;28;20025;-76
2023/03/30 06:52:36;;;;;;;4.10;1.05;;;11.80;99.90;;;;;;5015216;28;20093;-76
2023/03/30 06:55:03;;;;;;;2.80;1.67;;;11.90;99.90;;;;;;5017943;28;20022;-77
2023/03/30 06:57:29;;;;;;;6.60;1.77;;;12.10;99.90;;;;;;5000483;28;20029;-77
2023/03/30 06:59:55;;;;;;;5.25;1.52;;;12.20;99.90;;;;;;5016726;28;20107;-77
2023/03/30 07:02:21;;;;;;;5.47;1.65;;;12.10;99.90;;;;;;5044412;28;20487;-77
2023/03/30 07:04:47;;;;;;;4.45;1.83;;;12.10;99.90;;;;;;5026472;28;20030;-78
2023/03/30 07:07:13;;;;;;;5.78;1.90;;;12.00;99.90;;;;;;5025337;28;20072;-77
2023/03/30 07:09:51;;;;;;;3.58;1.63;;;12.00;99.90;;;;;;5040020;28;20013;-80
2023/03/30 07:12:16;;;;;;;6.25;2.10;;;12.00;99.90;;;;;;5024085;28;20076;-78
2023/03/30 07:14:42;;;;;;;7.28;2.17;;;12.10;99.90;;;;;;5017401;28;20494;-77
2023/03/30 07:17:08;;;;;;;5.45;1.80;;;12.20;99.90;;;;;;5018004;28;20029;-77
2023/03/30 07:19:33;;;;;;;3.60;1.67;;;12.20;99.90;;;;;;5024300;28;20037;-76
2023/03/30 07:21:59;;;;;;;4.82;1.75;;;12.30;99.90;;;;;;5023945;28;20040;-77
2023/03/30 07:24:25;;;;;;;4.65;1.40;;;12.50;99.90;;;;;;5019801;28;20029;-76
2023/03/30 07:26:51;;;;;;;7.38;2.35;;;12.60;99.90;;;;;;5029471;28;20128;-76
2023/03/30 07:29:16;;;;;;;3.08;1.50;;;12.80;99.90;;;;;;5018781;28;20387;-75
2023/03/30 07:31:42;;;;;;;3.35;1.42;;;13.00;99.90;;;;;;5012198;28;20037;-76
2023/03/30 07:34:11;;;;;;;3.97;1.63;;;13.20;99.90;;;;;;5028832;28;20034;-77
2023/03/30 07:36:40;;;;;;;2.50;1.00;;;13.50;99.90;;;;;;5015635;28;20061;-77
2023/03/30 07:39:07;;;;;;;2.45;1.10;;;13.70;99.90;;;;;;5018796;28;20382;-77
2023/03/30 07:41:33;;;;;;;1.75;1.17;;;13.80;99.90;;;;;;5010971;28;20033;-77
2023/03/30 07:43:59;;;;;;;3.88;1.13;;;13.80;99.90;;;;;;5022544;28;20506;-77
2023/03/30 07:46:30;;;;;;;4.90;1.55;;;13.80;99.90;;;;;;5027613;28;20046;-77
2023/03/30 07:48:55;;;;;;;4.03;1.30;;;13.80;99.90;;;;;;5017122;28;20069;-77
2023/03/30 07:51:21;;;;;;;3.60;1.30;;;13.70;99.90;;;;;;5033405;28;20454;-76
2023/03/30 07:53:47;;;;;;;4.32;1.15;;;13.70;99.90;;;;;;5031845;28;20049;-76
2023/03/30 07:56:13;;;;;;;3.88;0.85;;;13.60;99.90;;;;;;5035619;28;20052;-77
2023/03/30 07:58:39;;;;;;;4.30;0.88;;;13.70;99.90;;;;;;5016456;28;20101;-77
2023/03/30 08:01:05;;;;;;;3.63;1.48;;;13.70;99.90;;;;;;5001048;28;20116;-77
2023/03/30 08:03:31;;;;;;;4.57;1.42;;;13.80;99.90;;;;;;5034503;28;20064;-77
2023/03/30 08:05:59;;;;;;;5.55;1.50;;;13.80;99.90;;;;;;5030258;28;20076;-76
2023/03/30 08:08:29;;;;;;;3.65;1.33;;;13.70;99.90;;;;;;4996980;28;20076;-77
2023/03/30 08:10:55;;;;;;;4.68;1.70;;;13.60;99.90;;;;;;4997311;28;20057;-76
2023/03/30 08:13:20;;;;;;;5.80;1.58;;;13.50;99.90;;;;;;5029740;28;20030;-77
2023/03/30 08:15:46;;;;;;;4.43;2.17;;;13.50;99.90;;;;;;5014696;28;20485;-76
2023/03/30 08:18:13;;;;;;;4.75;1.45;;;13.50;99.90;;;;;;5014023;28;20026;-78
2023/03/30 08:20:40;;;;;;;6.57;1.60;;;13.60;99.90;;;;;;5014045;28;20163;-78
2023/03/30 08:23:07;;;;;;;9.77;1.92;;;13.80;99.90;;;;;;5031322;28;20120;-77
2023/03/30 08:25:33;;;;;;;3.90;1.50;;;14.10;99.90;;;;;;5015611;28;20033;-77
2023/03/30 08:27:59;;;;;;;3.92;2.28;;;14.40;99.90;;;;;;5013823;28;20022;-76
2023/03/30 08:30:26;;;;;;;3.78;1.38;;;14.60;99.90;;;;;;5027132;28;20021;-76
2023/03/30 08:32:52;;;;;;;1.38;0.95;;;14.90;99.90;;;;;;5034905;28;20025;-76
2023/03/30 08:35:18;;;;;;;4.00;1.42;;;15.00;99.90;;;;;;5039764;28;20089;-76
2023/03/30 08:37:44;;;;;;;4.15;2.22;;;15.20;99.80;;;;;;5029723;28;20030;-77
2023/03/30 08:40:14;;;;;;;7.15;1.70;;;15.40;98.90;;;;;;4997994;28;20033;-77
2023/03/30 08:43:01;;;;;;;4.35;1.60;;;15.70;98.00;;;;;;5024479;28;20202;-76
2023/03/30 08:45:37;;;;;;;3.15;1.70;;;15.80;97.20;;;;;;5044081;28;20097;-76
2023/03/30 08:48:06;;;;;;;2.03;0.82;;;15.70;96.70;;;;;;5033839;28;20048;-77
2023/03/30 08:50:34;;;;;;;1.48;1.23;;;15.60;97.00;;;;;;5029461;28;20048;-77
2023/03/30 08:53:01;;;;;;;2.58;1.02;;;15.40;97.20;;;;;;5027205;28;20030;-77
2023/03/30 08:55:27;;;;;;;2.63;1.00;;;15.20;97.40;;;;;;5029280;28;20049;-77
2023/03/30 08:57:58;;;;;;;2.15;0.90;;;15.10;97.70;;;;;;5012234;28;20418;-76
2023/03/30 09:00:47;;;;;;;2.05;0.98;;;15.00;98.00;;;;;;5032711;28;20026;-76
2023/03/30 09:03:28;;;;;;;5.22;1.25;;;15.20;98.10;;;;;;5033194;28;20037;-77
2023/03/30 09:05:59;;;;;;;2.15;1.10;;;15.30;97.90;;;;;;5027744;28;20061;-77
2023/03/30 09:08:28;;;;;;;3.95;1.38;;;15.50;97.50;;;;;;5031615;28;20033;-76
2023/03/30 09:10:59;;;;;;;2.47;1.33;;;15.60;97.20;;;;;;5017602;28;20052;-77
2023/03/30 09:13:31;;;;;;;4.10;1.45;;;15.60;97.10;;;;;;5013796;28;20152;-76
2023/03/30 09:16:17;;;;;;;2.38;1.30;;;15.80;96.90;;;;;;5032162;28;20060;-76
2023/03/30 09:18:47;;;;;;;2.08;0.90;;;16.00;96.70;;;;;;5020853;28;20510;-77
2023/03/30 09:21:14;;;;;;;2.00;0.90;;;16.20;96.10;;;;;;5027777;28;20044;-77
2023/03/30 09:23:40;;;;;;;1.77;0.80;;;16.50;96.00;;;;;;5032224;28;20030;-77
2023/03/30 09:26:20;;;;;;;1.38;0.80;;;16.50;95.30;;;;;;5022063;28;20021;-76
2023/03/30 09:28:47;;;;;;;4.35;1.25;;;;;;;;;;5014773;28;20055;-77
2023/03/30 09:31:15;;;;;;;5.72;2.05;;;16.80;94.30;;;;;;5027970;28;20030;-77
2023/03/30 09:34:03;;;;;;;8.52;2.03;;;16.80;93.90;;;;;;5016761;28;20022;-77
2023/03/30 09:37:09;;;;;;;3.70;1.77;;;16.90;93.60;;;;;;5018379;28;20026;-77
2023/03/30 09:39:36;;;;;;;5.75;1.90;;;17.20;92.90;;;;;;5022432;28;20044;-77
2023/03/30 09:42:35;;;;;;;5.07;1.77;;;17.60;92.10;;;;;;5018036;28;20033;-77
2023/03/30 09:45:05;;;;;;;3.35;1.40;;;18.00;90.90;;;;;;5003675;28;20061;-78
2023/03/30 09:47:41;;;;;;;2.65;1.42;;;18.20;90.10;;;;;;5035348;28;20124;-78
2023/03/30 09:50:08;;;;;;;6.55;2.28;;;18.30;88.40;;;;;;5030455;28;20025;-78
2023/03/30 09:52:37;;;;;;;4.00;2.08;;;18.40;86.90;;;;;;5042786;28;20703;-77
2023/03/30 09:55:21;;;;;;;6.45;2.05;;;18.50;85.30;;;;;;5023027;28;20022;-77
2023/03/30 09:57:51;;;;;;;8.60;2.50;;;18.70;83.90;;;;;;5019237;28;20049;-77
2023/03/30 10:00:22;;;;;;;4.68;1.92;;;18.90;82.30;;;;;;5028507;28;20026;-77
2023/03/30 10:02:57;;;;;;;6.63;2.05;;;18.80;81.10;;;;;;5035674;28;20029;-77
2023/03/30 10:05:23;;;;;;;8.77;2.00;;;18.80;80.90;;;;;;5036957;28;20029;-78
2023/03/30 10:07:57;;;;;;;14.38;2.35;;;18.70;80.30;;;;;;5019124;28;20045;-78
2023/03/30 10:10:32;;;;;;;11.52;3.40;;;18.60;79.20;;;;;;5003146;28;20030;-77
2023/03/30 10:13:18;;;;;;;12.52;2.85;;;18.40;78.80;;;;;;5022413;28;20017;-76
2023/03/30 10:15:54;;;;;;;14.40;3.42;;;18.20;79.10;;;;;;5013335;28;20018;-78
2023/03/30 10:18:28;;;;;;;11.10;2.42;;;18.30;78.80;;;;;;5019282;28;20568;-77
2023/03/30 10:21:06;;;;;;;13.82;3.80;;;18.60;78.80;;;;;;5014764;28;20529;-77
2023/03/30 10:23:38;;;;;;;8.27;2.20;;;19.20;76.50;;;;;;5031089;28;20022;-77
2023/03/30 10:26:19;;;;;;;9.15;2.40;;;19.50;74.50;;;;;;5002446;28;20020;-78
2023/03/30 10:29:06;;;;;;;19.20;3.38;;;19.60;73.20;;;;;;4998904;28;20026;-78
2023/03/30 10:31:42;;;;;;;11.20;2.90;;;19.60;70.60;;;;;;5014768;28;20167;-78
2023/03/30 10:34:34;;;;;;;13.63;2.80;;;19.50;70.60;;;;;;5034935;28;20030;-77
2023/03/30 10:37:04;;;;;;;11.20;2.40;;;19.50;70.60;;;;;;5027391;28;20022;-78
2023/03/30 10:39:32;;;;;;;10.57;3.03;;;19.40;70.50;;;;;;5032698;28;20133;-78
2023/03/30 10:42:03;;;;;;;10.85;3.03;;;19.10;70.60;;;;;;5021634;28;20185;-78
2023/03/30 10:44:39;;;;;;;19.08;2.70;;;18.70;71.60;;;;;;5019440;28;20044;-77
2023/03/30 10:47:36;;;;;;;14.68;3.70;;;18.40;72.80;;;;;;5021409;28;20021;-77
2023/03/30 10:50:28;;;;;;;9.40;2.38;;;18.10;73.30;;;;;;5035045;28;20533;-77
2023/03/30 10:52:54;;;;;;;;;;;17.80;74.70;;;;;;5019690;28;20052;-78
2023/03/30 10:55:34;;;;;;;10.38;2.83;;;17.50;75.00;;;;;;5016479;28;20385;-77
2023/03/30 10:58:06;;;;;;;18.17;3.78;;;17.20;76.60;;;;;;5019300;28;20041;-77
2023/03/30 11:00:42;;;;;;;9.98;3.17;;;17.00;78.90;;;;;;5018131;28;20033;-76
2023/03/30 11:03:14;;;;;;;15.02;3.00;;;16.70;80.70;;;;;;5029262;28;20160;-77
2023/03/30 11:05:47;;;;;;;13.45;2.58;;;16.50;82.10;;;;;;5014223;28;20034;-77
2023/03/30 11:08:21;;;;;;;14.32;2.90;;;16.40;83.40;;;;;;5023392;28;20033;-77
2023/03/30 11:10:51;;;;;;;11.05;2.50;;;16.40;83.80;;;;;;5018733;28;20041;-78
2023/03/30 11:13:40;;;;;;;11.43;2.97;;;16.30;84.20;;;;;;5021913;28;20030;-76
2023/03/30 11:16:17;;;;;;;20.85;3.67;;;16.30;84.50;;;;;;5031358;28;20108;-76
2023/03/30 11:18:48;;;;;;;16.92;3.20;;;16.20;85.10;;;;;;5035163;28;20033;-77
2023/03/30 11:21:43;;;;;;;10.45;3.20;;;16.10;85.80;;;;;;5002309;28;20461;-77
2023/03/30 11:24:15;;;;;;;13.40;3.88;;;15.90;87.10;;;;;;5007419;28;20109;-76
2023/03/30 11:27:02;;;;;;;13.82;3.22;;;15.80;87.90;;;;;;5033686;28;20022;-76
2023/03/30 11:29:46;;;;;;;11.45;3.80;;;15.60;89.40;;;;;;4997235;28;20061;-77
2023/03/30 11:32:34;;;;;;;16.23;4.43;;;15.40;90.40;;;;;;5010569;28;20029;-75
2023/03/30 11:35:25;;;;;;;9.68;2.97;;;15.10;91.40;;;;;;5015950;28;20058;-76
2023/03/30 11:38:01;;;;;;;11.20;2.85;;;14.70;93.30;;;;;;5015535;28;20022;-75
2023/03/30 11:40:43;;;;;;;9.55;2.30;;;14.30;94.50;;;;;;5018123;28;20026;-77
2023/03/30 11:43:11;;;;;;;10.10;2.10;;;14.10;94.20;;;;;;5026724;28;20489;-77
2023/03/30 11:46:14;;;;;;;6.88;2.70;;;14.00;94.10;;;;;;5028988;28;20025;-76
2023/03/30 11:48:57;;;;;;;12.38;3.85;;;;;;;;;;5018829;28;20014;-77
2023/03/30 11:51:44;;;;;;;6.22;2.35;;;13.60;94.20;;;;;;5039034;28;20026;-76
2023/03/30 11:54:40;;;;;;;8.35;2.15;;;13.40;95.20;;;;;;5022554;28;20025;-77
2023/03/30 11:57:27;;;;;;;6.35;2.38;;;13.30;95.50;;;;;;4996564;28;20031;-76
2023/03/30 12:00:08;;;;;;;7.50;2.30;;;13.10;96.50;;;;;;5034761;28;20026;-77
2023/03/30 12:02:45;;;;;;;5.65;2.80;;;12.80;98.30;;;;;;5008647;28;20034;-77
2023/03/30 12:05:29;;;;;;;8.45;2.60;;;12.50;99.90;;;;;;4997597;28;20498;-78
2023/03/30 12:08:00;;;;;;;8.02;2.92;;;12.00;99.90;;;;;;5024823;28;20033;-77
2023/03/30 12:10:33;;;;;;;12.45;3.28;;;11.70;99.90;;;;;;5035170;28;20029;-77
2023/03/30 12:13:02;;;;;;;7.80;2.83;;;11.50;99.90;;;;;;5035024;28;20442;-77
2023/03/30 12:15:39;;;;;;;7.43;3.30;;;11.30;99.90;;;;;;5017431;28;20032;-78
2023/03/30 12:18:18;;;;;;;7.53;2.90;;;11.00;99.90;;;;;;5024279;28;20022;-77
2023/03/30 12:21:00;;;;;;;12.98;3.92;;;10.80;99.90;;;;;;5017196;28;20084;-77
2023/03/30 12:23:48;;;;;;;8.95;3.30;;;10.70;99.90;;;;;;5028562;28;20088;-77
2023/03/30 12:26:26;;;;;;;10.15;3.50;;;10.60;99.90;;;;;;5018568;28;20522;-77
2023/03/30 12:28:52;;;;;;;9.20;3.63;;;10.50;99.90;;;;;;5028039;28;20068;-77
2023/03/30 12:31:17;;;;;;;8.35;3.38;;;10.50;99.90;;;;;;5025918;28;20025;-78
2023/03/30 12:33:46;;;;;;;8.35;3.30;;;10.50;99.90;;;;;;5024568;28;20041;-77
2023/03/30 12:36:41;;;;;;;8.07;3.40;;;10.40;99.90;;;;;;5018145;28;20099;-77
2023/03/30 12:39:30;;;;;;;5.00;3.20;;;10.40;99.90;;;;;;5013757;28;20084;-77
2023/03/30 12:42:34;;;;;;;6.90;3.00;;;10.50;99.90;;;;;;4997763;28;20045;-77
2023/03/30 12:45:21;;;;;;;9.07;3.25;;;10.50;99.90;;;;;;4986277;28;20057;-77
2023/03/30 12:48:05;;;;;;;3.72;2.47;;;10.60;99.90;;;;;;5015379;28;20033;-77
2023/03/30 12:51:11;;;;;;;5.90;2.95;;;10.70;99.90;;;;;;5015845;28;20053;-78
2023/03/30 12:54:04;;;;;;;7.85;2.58;;;10.70;99.90;;;;;;4973316;28;20074;-77
2023/03/30 12:56:50;;;;;;;;;;;10.70;99.90;;;;;;5018923;28;20056;-76
2023/03/30 12:59:52;;;;;;;2.60;2.03;;;10.70;99.90;;;;;;5018811;28;19917;-77
2023/03/30 13:02:38;;;;;;;3.88;2.35;;;10.70;99.90;;;;;;5032850;28;20022;-77
2023/03/30 13:05:16;;;;;;;3.95;2.50;;;10.70;99.90;;;;;;5000257;28;20033;-77
2023/03/30 13:07:43;;;;;;;3.53;2.20;;;10.70;99.90;;;;;;5026601;28;20017;-78
2023/03/30 13:10:30;;;;;;;4.55;2.20;;;10.70;99.90;;;;;;5038125;28;20034;-76
2023/03/30 13:13:01;;;;;;;4.45;2.40;;;10.60;99.90;;;;;;5013964;28;20018;-77
2023/03/30 13:15:50;;;;;;;2.00;1.80;;;10.60;99.90;;;;;;5025685;28;20025;-76